Blackfoot, Montana
Current Conditions -  °F | °C
As of 6:56 AM on Sunday 23 Nov 2014 (Local Time) from KCTB Reporting Station
Clear Clear  
Wind Chill: 17°   Ceiling: Unl
Heat Index: 30°   Visibility: 10mi
Dew Point: 18°   Wind: 21mph
Humidity: 61%   Direction: 260°W
Pressure: 29.83"   Gusts: NA
Location:  48.5484°N, 112.952°W
Report Text: KCTB 231356Z AUTO 26018KT 10SM CLR M01/M08 A2983 RMK AO2 SLP129 T10111078
Loading
Personal Weather Stations






























Interactive Weather Map New forecast layout! Learn more

10-Day Weather Forecast

Advertisements
Track Severe Weather on mobile